Sudbury Airport
CYSB : now visible

Airfield :











YOU CAN JOIN US ON...

 
LOGIN :

Register | Disclaimer

   EN    FR    IT 

 









Legend :    VFR   Marginal VFR   IFR   Intensive IFR   Very Intensive IFR
Visi :
Ceiling :
>= 8 km
>= 3000ft
5 to 8 km
1000 to 3000 ft
1500m to 5 km
500 to 1000 ft
800 to 1500m
200 to 500 ft
< 800m
< 200 ft
Symbols :   Thunderstorms  Fog  Heavy snow  Heavy precipitations  Wind > 20 kt







- Airport Elevation : 1141 ft
- IATA code : YSB


CYSB - Sudbury

CURRENT METAR :
  • 211600Z 00000KT 20SM OVC063 10/M02 A2997 RMK SC8 SLP162

EXPIRED METARs :
  • 211500Z 27002KT 20SM OVC070 09/M03 A2995 RMK AC8 SLP154
  • 211400Z 00000KT 20SM OVC070 05/M02 A2993 RMK AC8 SLP148
  • 211300Z 30005KT 20SM BKN110 03/M02 A2991 RMK AC7 SLP140

TAF TAF CYSB
Valid from the 21 at 14:00 until the 22 at 02:00 UTC


211338Z 2114/2202 30005KT P6SM SCT070 BKN110
BECMG 2115/2117 01008KT
FM212300 06010KT P6SM BKN070 RMK NXT FCST BY 212000Z
CZYZ FIR / North America



MET'MAP, your aeronautical weather chart ! - Copyright ORBIFLY December 2007 - Disclaimer

ORBIFLY MET'MAP TEAM :

Programming & Development : Alexandra Zaïnal
Concept & Development : Baudouin d'Aumeries
Co-Development & Prog : Marc-Olivier Méhu
Technical & hardware support : Manuel Goepfert

Contact : metmap@orbifly.com




SOURCES & CREDITS :

   NOAA       Earth
Advisory